createdAt,value
2022-09-05T00:00:41.642Z,71.44
2022-09-05T00:01:41.634Z,71.47
2022-09-05T00:02:48.812Z,71.44
2022-09-05T00:03:42.706Z,71.37
2022-09-05T00:04:41.595Z,71.67
2022-09-05T00:05:57.575Z,71.67
2022-09-05T00:06:41.575Z,71.44
2022-09-05T00:07:59.447Z,71.77
2022-09-05T00:08:42.581Z,71.87
2022-09-05T00:09:41.544Z,71.97
2022-09-05T00:10:59.787Z,72.07
2022-09-05T00:11:44.261Z,72.07
2022-09-05T00:12:41.510Z,72.17
2022-09-05T00:13:41.501Z,72.47
2022-09-05T00:15:17.833Z,72.47
2022-09-05T00:15:42.527Z,72.47
2022-09-05T00:16:41.467Z,72.67
2022-09-05T00:19:30.592Z,72.78
2022-09-05T00:24:21.739Z,72.88
2022-09-05T00:24:22.655Z,72.88
2022-09-05T00:24:23.270Z,73.18
2022-09-05T00:24:27.483Z,73.42
2022-09-05T00:24:28.185Z,73.52
2022-09-05T00:24:30.780Z,73.38
2022-09-05T00:25:06.806Z,73.72
2022-09-05T00:25:41.368Z,73.62
2022-09-05T00:26:43.860Z,73.62
2022-09-05T00:27:41.349Z,74.43
2022-09-05T00:28:41.337Z,74.12
2022-09-05T00:31:05.466Z,74.02
2022-09-05T00:31:08.882Z,74.02
2022-09-05T00:31:54.712Z,74.02
2022-09-05T00:32:42.461Z,74.43
2022-09-05T00:33:41.285Z,74.73
2022-09-05T00:34:48.130Z,74.22
2022-09-05T00:35:42.287Z,74.12
2022-09-05T00:36:41.248Z,74.22
2022-09-05T00:37:41.242Z,74.32
2022-09-05T00:38:41.229Z,74.02
2022-09-05T00:39:41.282Z,74.32
2022-09-05T00:40:41.204Z,74.02
2022-09-05T00:41:41.195Z,73.92
2022-09-05T00:42:41.189Z,74.22
2022-09-05T00:43:41.177Z,74.22
2022-09-05T00:44:41.163Z,74.32
2022-09-05T00:45:41.154Z,74.22
2022-09-05T00:46:41.209Z,74.43
2022-09-05T00:47:41.134Z,74.52
2022-09-05T00:48:41.117Z,74.73
2022-09-05T00:49:41.111Z,74.73
2022-09-05T00:50:41.096Z,74.93
2022-09-05T00:51:41.085Z,75.13
2022-09-05T00:52:41.073Z,74.93
2022-09-05T00:53:41.072Z,74.93
2022-09-05T00:54:41.820Z,75.37
2022-09-05T00:55:41.044Z,75.16
2022-09-05T00:56:41.031Z,75.37
2022-09-05T00:57:41.022Z,75.27
2022-09-05T00:58:41.009Z,75.37
2022-09-05T00:59:40.999Z,75.67
2022-09-05T01:00:40.986Z,75.47
2022-09-05T01:01:41.091Z,75.77
2022-09-05T01:02:51.865Z,75.67
2022-09-05T01:03:40.955Z,75.87
2022-09-05T01:04:40.943Z,76.07
2022-09-05T01:05:40.933Z,75.98
2022-09-05T01:06:40.921Z,75.87
2022-09-05T01:07:44.138Z,75.87
2022-09-05T01:08:40.900Z,75.87
2022-09-05T01:09:40.889Z,76.07
2022-09-05T01:10:40.878Z,76.07
2022-09-05T01:11:40.870Z,76.07
2022-09-05T01:12:40.858Z,76.28
2022-09-05T01:13:40.847Z,75.98
2022-09-05T01:14:40.841Z,75.87
2022-09-05T01:15:40.911Z,76.07
2022-09-05T01:16:40.811Z,76.78
2022-09-05T01:17:40.802Z,76.28
2022-09-05T01:18:40.792Z,76.28
2022-09-05T01:19:40.784Z,76.42
2022-09-05T01:20:40.765Z,76.82
2022-09-05T01:21:40.768Z,76.38
2022-09-05T01:22:40.747Z,76.51
2022-09-05T01:23:40.735Z,76.78
2022-09-05T01:24:40.724Z,76.98
2022-09-05T01:25:40.714Z,77.22
2022-09-05T01:26:40.703Z,76.51
2022-09-05T01:28:23.635Z,76.58
2022-09-05T01:29:16.558Z,76.72
2022-09-05T01:29:41.704Z,76.62
2022-09-05T01:30:40.853Z,76.62
2022-09-05T01:31:40.735Z,76.72
2022-09-05T01:32:40.764Z,76.72
2022-09-05T01:33:40.754Z,76.62
2022-09-05T01:34:40.750Z,77.28
2022-09-05T01:35:40.664Z,77.02
2022-09-05T01:36:41.624Z,77.32
2022-09-05T01:37:40.585Z,77.53
2022-09-05T01:38:40.594Z,77.73
2022-09-05T01:40:15.012Z,77.83
2022-09-05T01:40:40.625Z,77.73
2022-09-05T01:41:40.540Z,77.93
2022-09-05T01:42:40.526Z,77.83
2022-09-05T01:43:40.517Z,77.66
2022-09-05T01:44:40.504Z,77.73
2022-09-05T01:45:40.497Z,77.73
2022-09-05T01:46:40.561Z,77.76
2022-09-05T01:47:40.471Z,78.03
2022-09-05T01:48:42.338Z,77.86
2022-09-05T01:49:41.474Z,77.86
2022-09-05T01:50:40.440Z,77.73
2022-09-05T01:51:40.426Z,77.93
2022-09-05T01:52:49.418Z,77.86
2022-09-05T01:53:40.408Z,77.93
2022-09-05T01:54:40.393Z,78.17
2022-09-05T01:56:05.609Z,78.03
2022-09-05T01:56:40.371Z,78.13
2022-09-05T01:57:40.364Z,78.37
2022-09-05T01:58:40.347Z,78.27
2022-09-05T01:59:40.337Z,78.57
2022-09-05T02:00:40.326Z,78.27
2022-09-05T02:01:40.344Z,78.37
2022-09-05T02:02:40.477Z,78.37
2022-09-05T02:03:40.292Z,78.77
2022-09-05T02:04:40.283Z,78.27
2022-09-05T02:05:48.867Z,78.27
2022-09-05T02:06:43.904Z,78.06
2022-09-05T02:07:40.247Z,78.37
2022-09-05T02:08:41.820Z,78.47
2022-09-05T02:09:40.222Z,78.57
2022-09-05T02:10:40.211Z,78.37
2022-09-05T02:11:40.202Z,78.77
2022-09-05T02:12:40.189Z,78.57
2022-09-05T02:13:40.181Z,78.67
2022-09-05T02:14:40.164Z,78.67
2022-09-05T02:15:40.201Z,78.77
2022-09-05T02:16:40.141Z,78.97
2022-09-05T02:17:50.384Z,79.08
2022-09-05T02:18:41.150Z,79.48
2022-09-05T02:19:40.107Z,79.17
2022-09-05T02:20:40.096Z,79.21
2022-09-05T02:21:55.697Z,79.21
2022-09-05T02:22:41.102Z,79.41
2022-09-05T02:23:41.743Z,79.62
2022-09-05T02:24:40.050Z,79.72
2022-09-05T02:26:02.371Z,79.41
2022-09-05T02:26:40.028Z,79.52
2022-09-05T02:28:05.090Z,79.62
2022-09-05T02:28:40.005Z,79.62
2022-09-05T02:29:40.000Z,79.92
2022-09-05T02:30:48.456Z,79.68
2022-09-05T02:31:41.032Z,79.62
2022-09-05T02:32:40.614Z,79.62
2022-09-05T02:33:39.951Z,79.41
2022-09-05T02:34:39.938Z,79.92
2022-09-05T02:35:39.927Z,79.62
2022-09-05T02:36:39.919Z,79.52
2022-09-05T02:40:31.202Z,79.32
2022-09-05T02:45:04.018Z,79.32
2022-09-05T02:45:06.607Z,79.21
2022-09-05T02:45:06.970Z,79.92
2022-09-05T02:45:08.055Z,79.32
2022-09-05T02:45:10.982Z,79.32
2022-09-05T02:45:14.819Z,79.72
2022-09-05T02:45:24.195Z,79.72
2022-09-05T02:45:40.865Z,79.82
2022-09-05T02:46:39.959Z,79.62
2022-09-05T02:47:39.792Z,79.72
2022-09-05T02:48:39.781Z,79.92
2022-09-05T02:50:23.527Z,79.62
2022-09-05T02:54:07.881Z,79.52
2022-09-05T02:57:24.356Z,80.43
2022-09-05T02:57:29.915Z,79.82
2022-09-05T02:57:36.306Z,80.43
2022-09-05T02:57:37.041Z,80.43
2022-09-05T02:57:40.446Z,80.43
2022-09-05T02:57:40.448Z,79.92
2022-09-05T02:58:06.649Z,80.73
2022-09-05T02:59:06.042Z,80.97
2022-09-05T02:59:39.656Z,81.03
2022-09-05T03:00:39.644Z,80.97
2022-09-05T03:01:39.692Z,80.87
2022-09-05T03:02:39.653Z,80.97
2022-09-05T03:03:39.610Z,81.27
2022-09-05T03:04:39.598Z,80.87
2022-09-05T03:05:39.592Z,81.17
2022-09-05T03:06:39.575Z,81.17
2022-09-05T03:07:39.565Z,80.97
2022-09-05T03:08:39.553Z,81.48
2022-09-05T03:09:39.542Z,81.68
2022-09-05T03:10:53.660Z,81.78
2022-09-05T03:11:39.519Z,81.78
2022-09-05T03:12:39.505Z,81.78
2022-09-05T03:13:48.174Z,82.28
2022-09-05T03:14:39.485Z,81.57
2022-09-05T03:15:39.492Z,81.57
2022-09-05T03:16:47.135Z,81.37
2022-09-05T03:17:39.452Z,81.68
2022-09-05T03:18:39.439Z,81.98
2022-09-05T03:19:46.185Z,81.57
2022-09-05T03:20:40.454Z,81.48
2022-09-05T03:21:39.410Z,81.78
2022-09-05T03:22:39.395Z,81.78
2022-09-05T03:23:39.386Z,81.88
2022-09-05T03:24:39.371Z,82.08
2022-09-05T03:25:39.363Z,82.18
2022-09-05T03:26:39.353Z,81.88
2022-09-05T03:27:39.340Z,82.08
2022-09-05T03:28:39.326Z,82.39
2022-09-05T03:29:39.315Z,82.18
2022-09-05T03:30:39.351Z,82.39
2022-09-05T03:31:39.295Z,82.08
2022-09-05T03:32:40.322Z,82.18
2022-09-05T03:33:39.275Z,82.39
2022-09-05T03:34:39.260Z,82.08
2022-09-05T03:35:39.253Z,82.28
2022-09-05T03:36:39.241Z,81.98
2022-09-05T03:37:39.231Z,82.59
2022-09-05T03:38:39.220Z,82.59
2022-09-05T03:39:39.259Z,82.42
2022-09-05T03:40:39.196Z,82.08
2022-09-05T03:41:40.298Z,82.39
2022-09-05T03:42:39.174Z,82.49
2022-09-05T03:43:39.166Z,82.73
2022-09-05T03:44:39.155Z,83.13
2022-09-05T03:45:39.144Z,82.93
2022-09-05T03:46:39.134Z,82.73
2022-09-05T03:47:39.121Z,83.33
2022-09-05T03:48:39.336Z,83.44
2022-09-05T03:55:38.737Z,83.23
2022-09-05T03:55:41.139Z,83.54
2022-09-05T03:57:06.564Z,83.74
2022-09-05T03:57:13.120Z,83.84
2022-09-05T03:57:15.589Z,83.44
2022-09-05T03:57:15.713Z,83.44
2022-09-05T03:57:23.882Z,83.54
2022-09-05T03:57:27.107Z,83.64
2022-09-05T03:57:42.632Z,83.74
2022-09-05T03:59:38.994Z,84.25
2022-09-05T04:00:38.984Z,84.55
2022-09-05T04:02:45.104Z,83.94
2022-09-05T04:05:10.938Z,84.04
2022-09-05T04:08:08.423Z,84.45
2022-09-05T04:08:14.027Z,84.34
2022-09-05T04:08:15.725Z,84.04
2022-09-05T04:08:18.449Z,84.34
2022-09-05T04:08:24.162Z,84.04
2022-09-05T04:08:42.677Z,84.45
2022-09-05T04:09:50.600Z,85.25
2022-09-05T04:10:39.141Z,85.60
2022-09-05T04:11:38.922Z,85.39
2022-09-05T04:12:38.858Z,85.50
2022-09-05T04:13:38.842Z,85.50
2022-09-05T04:14:38.837Z,85.80
2022-09-05T04:15:38.823Z,85.10
2022-09-05T04:16:38.922Z,86.21
2022-09-05T04:17:38.803Z,85.60
2022-09-05T04:18:38.796Z,86.10
2022-09-05T04:19:38.783Z,86.10
2022-09-05T04:20:40.647Z,86.31
2022-09-05T04:21:38.757Z,86.00
2022-09-05T04:22:38.748Z,86.41
2022-09-05T04:23:38.740Z,86.10
2022-09-05T04:24:39.632Z,86.21
2022-09-05T04:25:38.766Z,86.61
2022-09-05T04:26:38.707Z,86.51
2022-09-05T04:27:38.696Z,87.62
2022-09-05T04:28:41.386Z,86.91
2022-09-05T04:29:38.671Z,88.13
2022-09-05T04:30:40.391Z,87.56
2022-09-05T04:31:38.707Z,87.26
2022-09-05T04:32:38.642Z,87.56
2022-09-05T04:33:38.657Z,88.68
2022-09-05T04:34:38.627Z,88.48
2022-09-05T04:35:38.631Z,89.28
2022-09-05T04:36:38.601Z,88.98
2022-09-05T04:37:48.146Z,88.88
2022-09-05T04:38:38.577Z,89.08
2022-09-05T04:39:38.622Z,89.53
2022-09-05T04:40:38.556Z,89.79
2022-09-05T04:41:39.881Z,89.99
2022-09-05T04:42:38.539Z,90.09
2022-09-05T04:43:38.523Z,89.79
2022-09-05T04:44:38.515Z,89.69
2022-09-05T04:45:38.551Z,89.69
2022-09-05T04:46:48.361Z,89.69
2022-09-05T04:47:38.479Z,89.18
2022-09-05T04:48:38.471Z,88.98
2022-09-05T04:49:38.469Z,88.98
2022-09-05T04:50:38.448Z,88.98
2022-09-05T04:51:38.434Z,89.08
2022-09-05T04:52:38.430Z,89.08
2022-09-05T04:53:38.418Z,88.88
2022-09-05T04:54:38.405Z,88.48
2022-09-05T04:55:38.389Z,88.98
2022-09-05T04:56:38.382Z,88.48
2022-09-05T04:57:38.372Z,88.64
2022-09-05T04:59:59.835Z,88.78
2022-09-05T05:03:12.947Z,88.68
2022-09-05T05:05:58.463Z,88.57
2022-09-05T05:06:01.473Z,88.23
2022-09-05T05:06:02.571Z,88.48
2022-09-05T05:06:12.050Z,87.73
2022-09-05T05:06:15.297Z,88.23
2022-09-05T05:06:16.671Z,88.13
2022-09-05T05:06:46.032Z,87.73
2022-09-05T05:07:39.439Z,87.73
2022-09-05T05:08:39.677Z,87.73
2022-09-05T05:09:38.242Z,87.42
2022-09-05T05:11:48.464Z,87.18
2022-09-05T05:17:58.201Z,87.18
2022-09-05T05:17:58.993Z,87.18
2022-09-05T05:17:59.666Z,87.22
2022-09-05T05:18:02.255Z,86.98
2022-09-05T05:18:06.248Z,87.22
2022-09-05T05:18:13.919Z,86.77
2022-09-05T05:18:14.228Z,86.87
2022-09-05T05:18:54.956Z,86.67
2022-09-05T05:19:39.200Z,86.67
2022-09-05T05:20:41.657Z,86.16
2022-09-05T05:21:38.114Z,86.47
2022-09-05T05:22:38.105Z,86.27
2022-09-05T05:23:38.092Z,85.96
2022-09-05T05:24:38.086Z,86.13
2022-09-05T05:25:38.071Z,85.76
2022-09-05T05:26:38.072Z,86.02
2022-09-05T05:27:38.046Z,85.52
2022-09-05T05:28:38.041Z,85.62
2022-09-05T05:29:38.026Z,85.62
2022-09-05T05:30:38.017Z,85.31
2022-09-05T05:31:38.073Z,85.22
2022-09-05T05:32:45.601Z,85.62
2022-09-05T05:33:39.007Z,85.02
2022-09-05T05:34:37.971Z,85.02
2022-09-05T05:35:38.518Z,85.11
2022-09-05T05:36:38.975Z,84.91
2022-09-05T05:37:37.950Z,84.77
2022-09-05T05:38:37.944Z,84.61
2022-09-05T05:39:37.987Z,84.61
2022-09-05T05:40:41.263Z,84.17
2022-09-05T05:41:38.919Z,84.27
2022-09-05T05:42:37.882Z,83.66
2022-09-05T05:43:37.872Z,83.56
2022-09-05T05:44:37.861Z,83.36
2022-09-05T05:45:37.900Z,83.05
2022-09-05T05:46:37.837Z,83.26
2022-09-05T05:47:37.824Z,83.12
2022-09-05T05:48:37.844Z,82.41
2022-09-05T05:49:37.804Z,82.51
2022-09-05T05:50:37.790Z,81.70
2022-09-05T05:52:00.999Z,81.76
2022-09-05T05:52:38.801Z,81.46
2022-09-05T05:53:43.129Z,81.56
2022-09-05T05:54:38.800Z,81.16
2022-09-05T05:55:51.811Z,81.46
2022-09-05T05:56:38.750Z,81.26
2022-09-05T05:57:37.716Z,81.16
2022-09-05T05:58:37.705Z,81.60
2022-09-05T05:59:37.734Z,81.46
2022-09-05T06:00:37.698Z,81.70
2022-09-05T06:01:38.881Z,81.36
2022-09-05T06:02:37.842Z,81.16
2022-09-05T06:03:37.795Z,81.46
2022-09-05T06:04:43.306Z,81.05
2022-09-05T06:05:38.710Z,80.25
2022-09-05T06:06:37.630Z,79.94
2022-09-05T06:09:12.774Z,79.81
2022-09-05T06:10:15.307Z,80.01
2022-09-05T06:14:26.134Z,79.61
2022-09-05T06:14:51.011Z,79.21
2022-09-05T06:14:57.484Z,78.86
2022-09-05T06:14:58.131Z,78.56
2022-09-05T06:15:02.501Z,78.26
2022-09-05T06:15:08.798Z,78.46
2022-09-05T06:15:38.543Z,78.16
2022-09-05T06:16:37.616Z,77.75
2022-09-05T06:17:37.497Z,78.06
2022-09-05T06:18:37.487Z,77.86
2022-09-05T06:21:40.922Z,77.72
2022-09-05T06:22:06.538Z,77.55
2022-09-05T06:22:06.975Z,77.55
2022-09-05T06:22:38.467Z,76.91
2022-09-05T06:23:39.759Z,76.61
2022-09-05T06:24:37.418Z,76.91
2022-09-05T06:25:37.408Z,76.81
2022-09-05T06:26:37.399Z,76.71
2022-09-05T06:27:37.384Z,76.51
2022-09-05T06:28:38.402Z,76.40
2022-09-05T06:29:38.238Z,77.01
2022-09-05T06:30:37.352Z,77.21
2022-09-05T06:31:37.369Z,77.21
2022-09-05T06:32:37.383Z,77.42
2022-09-05T06:33:37.318Z,77.48
2022-09-05T06:34:37.310Z,77.21
2022-09-05T06:35:37.297Z,77.01
2022-09-05T06:36:37.289Z,76.77
2022-09-05T06:37:37.279Z,76.77
2022-09-05T06:38:37.432Z,76.67
2022-09-05T06:39:37.283Z,76.87
2022-09-05T06:40:37.249Z,76.57
2022-09-05T06:41:37.242Z,75.63
2022-09-05T06:42:43.521Z,74.79
2022-09-05T06:43:38.257Z,74.58
2022-09-05T06:44:37.305Z,73.65
2022-09-05T06:45:37.190Z,72.91
2022-09-05T06:47:21.964Z,72.91
2022-09-05T06:47:38.335Z,72.44
2022-09-05T06:48:46.490Z,73.04
2022-09-05T06:49:40.066Z,73.11
2022-09-05T06:51:02.086Z,73.11
2022-09-05T06:51:37.127Z,73.41
2022-09-05T06:52:37.115Z,72.61
2022-09-05T06:53:37.112Z,72.10
2022-09-05T06:54:37.093Z,73.11
2022-09-05T06:55:37.081Z,72.33
2022-09-05T06:56:37.084Z,69.89
2022-09-05T06:57:43.977Z,68.95
2022-09-05T06:58:38.074Z,67.49
2022-09-05T06:59:37.037Z,66.99
2022-09-05T07:00:37.091Z,66.99
2022-09-05T07:01:59.936Z,67.32
2022-09-05T07:02:58.695Z,68.22
2022-09-05T07:03:38.019Z,69.46
2022-09-05T07:05:23.416Z,70.09
2022-09-05T07:05:45.478Z,70.79
2022-09-05T07:07:00.974Z,71.53
2022-09-05T07:07:36.950Z,71.00
2022-09-05T07:08:37.383Z,69.42
2022-09-05T07:09:36.926Z,68.79
2022-09-05T07:10:39.041Z,68.82
2022-09-05T07:11:36.907Z,70.26
2022-09-05T07:12:36.897Z,71.30
2022-09-05T07:13:40.932Z,72.64
2022-09-05T07:14:37.900Z,73.04
2022-09-05T07:15:36.863Z,73.14
2022-09-05T07:16:37.954Z,73.41
2022-09-05T07:17:48.501Z,73.30
2022-09-05T07:18:36.843Z,73.94
2022-09-05T07:19:36.818Z,74.21
2022-09-05T07:21:17.922Z,72.80
2022-09-05T07:21:36.798Z,72.71
2022-09-05T07:22:48.769Z,73.10
2022-09-05T07:24:06.450Z,72.71
2022-09-05T07:24:53.421Z,73.00
2022-09-05T07:25:37.625Z,73.00
2022-09-05T07:26:54.184Z,73.17
2022-09-05T07:28:00.131Z,72.87
2022-09-05T07:28:37.757Z,72.56
2022-09-05T07:29:36.733Z,71.36
2022-09-05T07:30:36.701Z,71.66
2022-09-05T07:31:37.859Z,71.47
2022-09-05T07:32:36.681Z,71.26
2022-09-05T07:33:36.677Z,71.33
2022-09-05T07:34:36.655Z,72.06
2022-09-05T07:35:41.477Z,70.96
2022-09-05T07:36:36.635Z,71.47
2022-09-05T07:37:36.621Z,71.66
2022-09-05T07:38:52.309Z,71.77
2022-09-05T07:39:37.693Z,71.26
2022-09-05T07:40:36.659Z,71.66
2022-09-05T07:41:36.582Z,72.00
2022-09-05T07:42:36.570Z,72.47
2022-09-05T07:43:36.557Z,72.90
2022-09-05T07:44:36.549Z,72.50
2022-09-05T07:45:36.547Z,72.30
2022-09-05T07:46:36.526Z,73.41
2022-09-05T07:47:36.519Z,73.50
2022-09-05T07:48:36.517Z,73.71
2022-09-05T07:49:36.503Z,73.47
2022-09-05T07:52:43.111Z,71.16
2022-09-05T07:56:49.058Z,68.73
2022-09-05T07:56:51.278Z,66.75
2022-09-05T07:56:52.571Z,67.79
2022-09-05T07:56:59.131Z,63.13
2022-09-05T07:57:01.148Z,65.83
2022-09-05T07:57:04.915Z,65.09
2022-09-05T07:57:50.622Z,62.50
2022-09-05T07:58:36.689Z,61.21
2022-09-05T07:59:36.396Z,61.18
2022-09-05T08:00:36.437Z,60.85
2022-09-05T08:01:39.456Z,60.15
2022-09-05T08:02:36.360Z,59.95
2022-09-05T08:03:36.490Z,59.62
2022-09-05T08:04:36.433Z,59.19
2022-09-05T08:05:36.502Z,58.27
2022-09-05T08:07:46.511Z,58.54
2022-09-05T08:07:49.322Z,57.42
2022-09-05T08:08:37.315Z,56.20
2022-09-05T08:10:06.741Z,56.82
2022-09-05T08:11:22.173Z,56.49
2022-09-05T08:11:36.254Z,56.00
2022-09-05T08:13:22.807Z,56.07
2022-09-05T08:13:37.484Z,55.18
2022-09-05T08:14:44.566Z,55.35
2022-09-05T08:16:00.805Z,55.35
2022-09-05T08:16:37.290Z,55.42
2022-09-05T08:17:36.201Z,54.63
2022-09-05T08:18:36.187Z,54.10
2022-09-05T08:19:36.170Z,54.23
2022-09-05T08:20:36.160Z,54.72
2022-09-05T08:21:39.906Z,54.35
2022-09-05T08:22:36.142Z,55.62
2022-09-05T08:23:36.189Z,54.23
2022-09-05T08:24:36.171Z,53.51
2022-09-05T08:25:43.630Z,53.08
2022-09-05T08:26:37.174Z,53.19
2022-09-05T08:27:36.166Z,52.56
2022-09-05T08:28:39.253Z,51.94
2022-09-05T08:29:36.179Z,51.75
2022-09-05T08:30:36.231Z,51.75
2022-09-05T08:31:36.239Z,51.75
2022-09-05T08:32:36.074Z,51.35
2022-09-05T08:33:36.111Z,51.12
2022-09-05T08:34:45.187Z,51.52
2022-09-05T08:35:36.006Z,51.40
2022-09-05T08:36:35.990Z,51.12
2022-09-05T08:37:35.989Z,51.42
2022-09-05T08:38:40.971Z,51.62
2022-09-05T08:39:35.974Z,50.51
2022-09-05T08:40:35.954Z,50.18
2022-09-05T08:41:51.309Z,50.09
2022-09-05T08:42:37.694Z,50.18
2022-09-05T08:44:13.567Z,50.29
2022-09-05T08:46:39.202Z,49.59
2022-09-05T08:46:39.916Z,50.09
2022-09-05T08:46:49.149Z,49.77
2022-09-05T08:47:45.524Z,49.96
2022-09-05T08:48:35.866Z,49.35
2022-09-05T08:49:37.566Z,48.83
2022-09-05T08:50:35.872Z,48.11
2022-09-05T08:51:35.836Z,48.02
2022-09-05T08:52:36.857Z,47.40
2022-09-05T08:53:46.960Z,47.60
2022-09-05T08:54:35.802Z,47.18
2022-09-05T08:55:35.802Z,46.98
2022-09-05T08:56:35.785Z,47.52
2022-09-05T08:57:35.779Z,47.81
2022-09-05T08:58:35.765Z,47.60
2022-09-05T08:59:35.755Z,47.10
2022-09-05T09:00:35.825Z,46.98
2022-09-05T09:01:48.908Z,46.96
2022-09-05T09:02:47.076Z,46.47
2022-09-05T09:03:35.856Z,46.78
2022-09-05T09:04:54.070Z,47.00
2022-09-05T09:06:11.924Z,47.52
2022-09-05T09:06:35.681Z,47.20
2022-09-05T09:07:51.352Z,46.78
2022-09-05T09:08:35.668Z,46.59
2022-09-05T09:09:35.658Z,46.17
2022-09-05T09:10:35.649Z,46.56
2022-09-05T09:11:36.918Z,45.75
2022-09-05T09:12:35.895Z,45.63
2022-09-05T09:13:35.612Z,45.12
2022-09-05T09:14:35.601Z,44.51
2022-09-05T09:15:35.588Z,44.48
2022-09-05T09:16:35.704Z,44.15
2022-09-05T09:17:35.574Z,45.14
2022-09-05T09:18:36.151Z,44.72
2022-09-05T09:19:35.547Z,45.09
2022-09-05T09:20:35.567Z,44.53
2022-09-05T09:21:35.533Z,44.40
2022-09-05T09:22:35.517Z,45.16
2022-09-05T09:23:35.507Z,45.56
2022-09-05T09:24:35.499Z,45.46
2022-09-05T09:25:35.493Z,45.04
2022-09-05T09:26:35.476Z,44.72
2022-09-05T09:27:52.289Z,44.45
2022-09-05T09:28:49.621Z,44.72
2022-09-05T09:29:36.484Z,44.23
2022-09-05T09:30:35.451Z,45.04
2022-09-05T09:31:35.492Z,44.80
2022-09-05T09:32:35.417Z,44.51
2022-09-05T09:33:35.408Z,43.55
2022-09-05T09:34:36.899Z,43.28
2022-09-05T09:35:35.391Z,43.99
2022-09-05T09:36:35.382Z,44.11
2022-09-05T09:37:48.187Z,43.60
2022-09-05T09:38:36.458Z,44.09
2022-09-05T09:39:38.744Z,43.08
2022-09-05T09:40:35.374Z,43.28
2022-09-05T09:41:35.333Z,43.08
2022-09-05T09:42:35.320Z,42.99
2022-09-05T09:43:35.314Z,43.48
2022-09-05T09:44:35.311Z,43.46
2022-09-05T09:45:35.285Z,42.65
2022-09-05T09:46:39.442Z,42.11
2022-09-05T09:47:35.269Z,41.58
2022-09-05T09:48:35.272Z,40.80
2022-09-05T09:49:35.258Z,41.71
2022-09-05T09:50:35.235Z,41.11
2022-09-05T09:51:35.225Z,41.09
2022-09-05T09:52:35.217Z,41.00
2022-09-05T09:53:36.916Z,40.84
2022-09-05T09:54:35.197Z,41.33
2022-09-05T09:55:35.187Z,41.03
2022-09-05T09:56:35.172Z,40.61
2022-09-05T09:57:35.176Z,41.02
2022-09-05T09:58:35.204Z,41.31
2022-09-05T09:59:35.145Z,41.02
2022-09-05T10:00:36.164Z,40.82
2022-09-05T10:01:37.358Z,40.61
2022-09-05T10:04:31.312Z,40.41
2022-09-05T10:06:40.789Z,40.51
2022-09-05T10:10:35.211Z,40.80
2022-09-05T10:10:35.305Z,40.39
2022-09-05T10:10:44.213Z,39.31
2022-09-05T10:10:45.543Z,39.59
2022-09-05T10:10:46.919Z,40.09
2022-09-05T10:10:59.753Z,39.29
2022-09-05T10:11:00.721Z,39.69
2022-09-05T10:11:53.623Z,39.88
2022-09-05T10:12:36.048Z,39.47
2022-09-05T10:13:35.004Z,39.06
2022-09-05T10:14:49.959Z,38.76
2022-09-05T10:15:36.013Z,38.88
2022-09-05T10:16:34.980Z,38.76
2022-09-05T10:17:34.998Z,39.09
2022-09-05T10:18:34.964Z,40.01
2022-09-05T10:20:34.938Z,40.61
2022-09-05T10:21:34.935Z,41.24
2022-09-05T10:22:37.011Z,40.94
2022-09-05T10:23:34.926Z,40.41
2022-09-05T10:24:34.906Z,40.09
2022-09-05T10:25:34.932Z,40.70
2022-09-05T10:26:35.308Z,40.58
2022-09-05T10:27:34.869Z,40.27
2022-09-05T10:28:34.863Z,39.47
2022-09-05T10:29:38.478Z,39.37
2022-09-05T10:32:10.384Z,39.78
2022-09-05T10:34:53.495Z,39.78
2022-09-05T10:35:08.238Z,39.66
2022-09-05T10:35:08.910Z,39.07
2022-09-05T10:35:15.176Z,40.19
2022-09-05T10:35:37.452Z,40.21
2022-09-05T10:36:34.907Z,40.51
2022-09-05T10:37:34.767Z,40.48
2022-09-05T10:38:34.759Z,40.72
2022-09-05T10:39:34.779Z,41.33
2022-09-05T10:40:36.346Z,41.19
2022-09-05T10:41:35.781Z,40.47
2022-09-05T10:42:34.715Z,39.64
2022-09-05T10:43:34.711Z,39.04
2022-09-05T10:44:34.693Z,38.42
2022-09-05T10:45:38.632Z,37.81
2022-09-05T10:46:50.261Z,37.81
2022-09-05T10:47:34.668Z,37.71
2022-09-05T10:48:34.655Z,37.50
2022-09-05T10:49:34.649Z,37.21
2022-09-05T10:50:34.635Z,36.99
2022-09-05T10:51:37.861Z,36.91
2022-09-05T10:52:34.616Z,37.91
2022-09-05T10:53:38.939Z,37.91
2022-09-05T10:54:34.604Z,37.30
2022-09-05T10:55:34.589Z,37.75
2022-09-05T10:56:34.606Z,37.43
2022-09-05T10:57:34.576Z,37.93
2022-09-05T10:59:26.046Z,37.54
2022-09-05T11:02:16.132Z,37.62
2022-09-05T11:02:23.121Z,37.41
2022-09-05T11:02:27.083Z,37.54
2022-09-05T11:02:41.034Z,37.95
2022-09-05T11:03:34.649Z,38.14
2022-09-05T11:04:37.101Z,38.63
2022-09-05T11:05:35.559Z,38.22
2022-09-05T11:06:34.519Z,37.70
2022-09-05T11:07:34.477Z,36.91
2022-09-05T11:08:34.463Z,37.30
2022-09-05T11:09:34.458Z,36.78
2022-09-05T11:10:34.439Z,36.68
2022-09-05T11:11:35.439Z,36.58
2022-09-05T11:12:34.420Z,36.98
2022-09-05T11:13:34.411Z,36.76
2022-09-05T11:14:34.405Z,36.58
2022-09-05T11:15:34.540Z,37.05
2022-09-05T11:16:34.465Z,36.66
2022-09-05T11:17:34.410Z,36.78
2022-09-05T11:18:55.089Z,37.21
2022-09-05T11:19:35.392Z,37.91
2022-09-05T11:20:35.254Z,37.91
2022-09-05T11:21:34.336Z,37.70
2022-09-05T11:22:34.323Z,37.70
2022-09-05T11:23:34.320Z,37.60
2022-09-05T11:24:34.309Z,38.22
2022-09-05T11:25:40.517Z,38.63
2022-09-05T11:26:35.311Z,38.30
2022-09-05T11:27:34.331Z,38.09
2022-09-05T11:28:34.286Z,38.18
2022-09-05T11:29:34.257Z,37.07
2022-09-05T11:30:38.100Z,36.96
2022-09-05T11:31:59.137Z,36.65
2022-09-05T11:38:01.237Z,36.55
2022-09-05T11:39:47.494Z,36.16
2022-09-05T11:39:51.051Z,36.88
2022-09-05T11:39:51.197Z,36.63
2022-09-05T11:39:55.851Z,36.74
2022-09-05T11:39:57.724Z,36.65
2022-09-05T11:40:03.625Z,36.16
2022-09-05T11:40:10.552Z,37.15
2022-09-05T11:40:51.128Z,36.65
2022-09-05T11:41:35.213Z,36.84
2022-09-05T11:42:34.131Z,36.68
2022-09-05T11:43:34.124Z,37.29
2022-09-05T11:44:34.120Z,37.91
2022-09-05T11:45:34.178Z,38.51
2022-09-05T11:46:34.199Z,38.63
2022-09-05T11:47:40.999Z,39.22
2022-09-05T11:48:35.107Z,39.00
2022-09-05T11:49:34.069Z,38.90
2022-09-05T11:50:34.056Z,38.20
2022-09-05T11:51:34.421Z,38.79
2022-09-05T11:52:34.043Z,38.48
2022-09-05T11:53:34.052Z,37.19
2022-09-05T11:54:34.039Z,37.67
2022-09-05T11:55:34.015Z,37.15
2022-09-05T11:56:35.719Z,36.65
2022-09-05T11:57:35.057Z,36.45
2022-09-05T11:58:45.100Z,36.45
2022-09-05T11:59:34.997Z,36.16
2022-09-05T12:00:34.548Z,36.06
2022-09-05T12:01:41.758Z,36.43
2022-09-05T12:02:37.672Z,36.14
2022-09-05T12:03:57.682Z,36.25
2022-09-05T12:04:36.366Z,36.24
2022-09-05T12:05:49.971Z,35.42
2022-09-05T12:06:34.956Z,35.53
2022-09-05T12:07:33.922Z,35.53
2022-09-05T12:08:33.888Z,35.61
2022-09-05T12:09:33.894Z,35.02
2022-09-05T12:10:46.385Z,35.63
2022-09-05T12:11:34.877Z,36.47
2022-09-05T12:12:41.214Z,36.78
2022-09-05T12:13:34.859Z,36.88
2022-09-05T12:14:33.819Z,37.09
2022-09-05T12:15:34.048Z,36.88
2022-09-05T12:16:33.863Z,36.25
2022-09-05T12:17:35.436Z,35.65
2022-09-05T12:18:33.789Z,35.96
2022-09-05T12:19:34.678Z,36.04
2022-09-05T12:20:43.179Z,36.06
2022-09-05T12:22:35.791Z,36.90
2022-09-05T12:23:58.051Z,37.29
2022-09-05T12:24:40.816Z,37.48
2022-09-05T12:27:36.868Z,37.27
2022-09-05T12:27:40.623Z,36.25
2022-09-05T12:27:44.067Z,36.84
2022-09-05T12:29:35.058Z,36.04
2022-09-05T12:29:39.859Z,36.22
2022-09-05T12:30:55.094Z,35.61
2022-09-05T12:32:59.560Z,35.23
2022-09-05T12:35:22.498Z,35.13
2022-09-05T12:36:02.925Z,35.03
2022-09-05T12:36:08.150Z,34.97
2022-09-05T12:36:12.660Z,35.65
2022-09-05T12:40:05.222Z,35.44
2022-09-05T12:40:21.335Z,35.34
2022-09-05T12:40:52.923Z,35.46
2022-09-05T12:40:54.519Z,35.34
2022-09-05T12:41:37.080Z,35.34
2022-09-05T12:42:08.264Z,36.37
2022-09-05T12:42:08.388Z,35.55
2022-09-05T12:42:45.734Z,35.96
2022-09-05T12:44:38.704Z,36.27
2022-09-05T12:44:41.887Z,35.96
2022-09-05T12:45:37.263Z,35.65
2022-09-05T12:46:33.507Z,35.47
2022-09-05T12:47:33.498Z,36.16
2022-09-05T12:48:39.169Z,35.88
2022-09-05T12:49:35.211Z,36.27
2022-09-05T12:50:33.468Z,36.18
2022-09-05T12:51:46.320Z,35.77
2022-09-05T12:52:34.477Z,35.16
2022-09-05T12:53:33.490Z,35.06
2022-09-05T12:54:34.735Z,35.05